createdAt,value
2022-11-07T00:00:59.352Z,54.07
2022-11-07T00:04:00.913Z,59.03
2022-11-07T00:07:02.950Z,59.20
2022-11-07T00:10:05.284Z,60.50
2022-11-07T00:13:06.932Z,61.77
2022-11-07T00:16:09.585Z,60.27
2022-11-07T00:19:11.783Z,62.90
2022-11-07T00:22:13.346Z,60.97
2022-11-07T00:25:14.876Z,64.83
2022-11-07T00:28:16.508Z,66.97
2022-11-07T00:31:18.225Z,64.23
2022-11-07T00:34:19.807Z,68.47
2022-11-07T00:37:21.356Z,67.73
2022-11-07T00:40:23.243Z,71.83
2022-11-07T00:43:25.281Z,63.40
2022-11-07T00:46:26.840Z,65.43
2022-11-07T00:49:28.412Z,61.00
2022-11-07T00:52:30.372Z,63.33
2022-11-07T00:55:32.377Z,66.20
2022-11-07T00:58:34.320Z,66.27
2022-11-07T01:01:36.044Z,67.33
2022-11-07T01:04:56.392Z,70.37
2022-11-07T01:07:57.914Z,66.60
2022-11-07T01:11:02.707Z,64.40
2022-11-07T01:14:04.436Z,69.17
2022-11-07T01:17:06.049Z,68.17
2022-11-07T01:20:07.883Z,69.83
2022-11-07T01:23:09.591Z,68.27
2022-11-07T01:26:12.261Z,66.20
2022-11-07T01:29:14.223Z,68.07
2022-11-07T01:32:15.873Z,62.27
2022-11-07T01:35:17.436Z,68.13
2022-11-07T01:38:19.130Z,61.73
2022-11-07T01:41:25.601Z,62.80
2022-11-07T01:44:27.304Z,60.03
2022-11-07T01:47:31.300Z,62.17
2022-11-07T01:50:32.893Z,64.27
2022-11-07T01:53:35.623Z,67.33
2022-11-07T01:56:38.068Z,71.33
2022-11-07T01:59:40.267Z,64.90
2022-11-07T02:02:42.664Z,69.30
2022-11-07T02:05:47.000Z,65.30
2022-11-07T02:08:49.117Z,66.27
2022-11-07T02:11:50.675Z,67.53
2022-11-07T02:14:52.248Z,66.97
2022-11-07T02:17:53.933Z,67.20
2022-11-07T02:20:57.321Z,72.93
2022-11-07T02:24:04.952Z,72.23
2022-11-07T02:27:09.240Z,77.60
2022-11-07T02:30:15.769Z,79.30
2022-11-07T02:33:21.653Z,92.90
2022-11-07T02:36:24.028Z,93.50
2022-11-07T02:39:25.868Z,82.27
2022-11-07T02:42:43.341Z,98.90
2022-11-07T02:45:46.443Z,94.53
2022-11-07T02:48:52.385Z,88.77
2022-11-07T02:51:54.000Z,74.13
2022-11-07T02:54:56.123Z,91.60
2022-11-07T02:57:57.875Z,89.17
2022-11-07T03:01:08.751Z,103.93
2022-11-07T03:04:10.316Z,88.37
2022-11-07T03:07:11.954Z,92.87
2022-11-07T03:10:14.520Z,95.23
2022-11-07T03:13:16.570Z,94.40
2022-11-07T03:16:19.129Z,102.73
2022-11-07T03:19:20.711Z,101.47
2022-11-07T03:22:22.296Z,96.00
2022-11-07T03:25:23.871Z,103.67
2022-11-07T03:28:25.896Z,101.13
2022-11-07T03:31:27.485Z,88.57
2022-11-07T03:34:29.063Z,96.63
2022-11-07T03:37:30.656Z,100.97
2022-11-07T03:40:32.225Z,89.40
2022-11-07T03:43:33.863Z,95.83
2022-11-07T03:46:36.616Z,106.63
2022-11-07T03:49:38.173Z,120.77
2022-11-07T03:52:39.731Z,115.80
2022-11-07T03:55:42.748Z,120.30
2022-11-07T03:58:44.312Z,118.70
2022-11-07T04:01:46.076Z,107.73
2022-11-07T04:04:47.772Z,113.00
2022-11-07T04:07:49.323Z,115.37
2022-11-07T04:10:50.941Z,148.17
2022-11-07T04:14:11.169Z,99.03
2022-11-07T04:17:18.824Z,91.03
2022-11-07T04:20:20.435Z,101.30
2022-11-07T04:23:22.094Z,85.53
2022-11-07T04:26:42.308Z,86.73
2022-11-07T04:29:43.945Z,81.93
2022-11-07T04:32:46.529Z,91.97
2022-11-07T04:35:48.232Z,85.33
2022-11-07T04:38:49.817Z,85.53
2022-11-07T04:41:51.405Z,88.33
2022-11-07T04:44:52.917Z,87.20
2022-11-07T04:47:54.468Z,80.30
2022-11-07T04:50:56.348Z,84.03
2022-11-07T04:53:57.962Z,81.40
2022-11-07T04:56:59.540Z,97.83
2022-11-07T05:00:01.424Z,89.53
2022-11-07T05:03:03.424Z,92.63
2022-11-07T05:06:05.147Z,96.57
2022-11-07T05:09:06.851Z,87.80
2022-11-07T05:12:08.424Z,94.93
2022-11-07T05:15:10.179Z,93.10
2022-11-07T05:18:11.891Z,93.23
2022-11-07T05:21:13.524Z,108.23
2022-11-07T05:24:15.154Z,96.00
2022-11-07T05:27:17.908Z,111.27
2022-11-07T05:30:19.638Z,115.80
2022-11-07T05:33:21.359Z,112.03
2022-11-07T05:36:23.996Z,90.60
2022-11-07T05:39:25.582Z,100.47
2022-11-07T05:42:27.179Z,103.70
2022-11-07T05:45:31.611Z,113.53
2022-11-07T05:48:33.349Z,89.33
2022-11-07T05:51:34.981Z,87.33
2022-11-07T05:54:36.680Z,78.77
2022-11-07T05:57:38.355Z,78.93
2022-11-07T06:00:40.617Z,91.67
2022-11-07T06:03:42.209Z,84.03
2022-11-07T06:06:43.919Z,81.70
2022-11-07T06:09:45.566Z,80.70
2022-11-07T06:12:48.764Z,89.03
2022-11-07T06:15:51.848Z,80.57
2022-11-07T06:18:53.431Z,90.67
2022-11-07T06:21:55.015Z,88.53
2022-11-07T06:24:57.610Z,98.13
2022-11-07T06:28:02.182Z,90.90
2022-11-07T06:31:04.425Z,95.17
2022-11-07T06:34:05.994Z,94.07
2022-11-07T06:37:07.688Z,94.70
2022-11-07T06:40:09.797Z,85.53
2022-11-07T06:43:13.387Z,89.23
2022-11-07T06:46:17.372Z,102.40
2022-11-07T06:49:18.947Z,92.57
2022-11-07T06:52:20.588Z,86.47
2022-11-07T06:55:22.207Z,83.50
2022-11-07T06:58:23.841Z,83.80
2022-11-07T07:01:25.692Z,90.83
2022-11-07T07:04:27.412Z,77.87
2022-11-07T07:07:29.725Z,87.00
2022-11-07T07:10:31.380Z,87.90
2022-11-07T07:13:33.402Z,89.40
2022-11-07T07:16:34.971Z,76.90
2022-11-07T07:19:37.566Z,66.20
2022-11-07T07:22:40.319Z,58.30
2022-11-07T07:25:41.943Z,187.43
2022-11-07T07:28:44.369Z,60.17
2022-11-07T07:31:46.181Z,60.83
2022-11-07T07:34:48.113Z,56.77
2022-11-07T07:37:50.962Z,56.73
2022-11-07T07:40:52.529Z,70.77
2022-11-07T07:43:54.115Z,59.97
2022-11-07T07:46:55.693Z,60.47
2022-11-07T07:49:57.279Z,53.33
2022-11-07T07:52:58.931Z,59.30
2022-11-07T07:56:00.743Z,48.67
2022-11-07T07:59:03.253Z,55.43
2022-11-07T08:02:04.899Z,48.87
2022-11-07T08:05:06.775Z,44.33
2022-11-07T08:08:08.530Z,50.43
2022-11-07T08:11:10.687Z,43.00
2022-11-07T08:14:12.302Z,47.47
2022-11-07T08:17:13.883Z,47.30
2022-11-07T08:20:16.599Z,36.73
2022-11-07T08:23:18.694Z,42.47
2022-11-07T08:26:20.583Z,39.93
2022-11-07T08:29:22.492Z,38.03
2022-11-07T08:32:24.804Z,36.70
2022-11-07T08:35:26.669Z,34.80
2022-11-07T08:38:29.022Z,31.27
2022-11-07T08:41:30.580Z,29.43
2022-11-07T08:44:37.046Z,32.13
2022-11-07T08:47:38.888Z,28.43
2022-11-07T08:50:40.506Z,31.63
2022-11-07T08:53:42.090Z,33.60
2022-11-07T08:56:43.719Z,34.20
2022-11-07T08:59:45.394Z,32.67
2022-11-07T09:03:18.338Z,37.77
2022-11-07T09:06:08.665Z,41.07
2022-11-07T09:09:15.479Z,37.50
2022-11-07T09:12:18.292Z,39.37
2022-11-07T09:15:19.919Z,34.40
2022-11-07T09:18:21.581Z,43.77
2022-11-07T09:21:23.145Z,43.03
2022-11-07T09:24:25.210Z,36.73
2022-11-07T09:27:26.854Z,40.13
2022-11-07T09:30:28.450Z,40.93
2022-11-07T09:33:30.584Z,45.60
2022-11-07T09:36:32.215Z,44.87
2022-11-07T09:39:34.124Z,44.50
2022-11-07T09:42:53.694Z,46.37
2022-11-07T09:46:01.358Z,38.20
2022-11-07T09:49:02.951Z,50.10
2022-11-07T09:52:04.480Z,37.97
2022-11-07T09:55:17.768Z,41.47
2022-11-07T09:58:31.561Z,38.97
2022-11-07T10:01:33.656Z,38.13
2022-11-07T10:04:35.637Z,35.10
2022-11-07T10:07:42.163Z,32.63
2022-11-07T10:10:54.926Z,35.63
2022-11-07T10:14:01.639Z,31.60
2022-11-07T10:17:06.285Z,31.87
2022-11-07T10:20:33.120Z,31.73
2022-11-07T10:23:42.640Z,32.90
2022-11-07T10:26:44.742Z,34.27
2022-11-07T10:29:48.018Z,36.70
2022-11-07T10:33:11.099Z,33.70
2022-11-07T10:36:15.712Z,30.10
2022-11-07T10:39:18.484Z,31.23
2022-11-07T10:42:21.149Z,36.73
2022-11-07T10:45:23.657Z,30.27
2022-11-07T10:48:25.882Z,33.60
2022-11-07T10:51:34.607Z,36.93
2022-11-07T10:54:36.349Z,38.80
2022-11-07T10:57:38.026Z,38.20
2022-11-07T11:00:39.792Z,33.17
2022-11-07T11:03:44.818Z,34.70
2022-11-07T11:06:55.989Z,38.53
2022-11-07T11:09:58.140Z,39.10
2022-11-07T11:12:59.755Z,48.57
2022-11-07T11:16:13.336Z,32.00
2022-11-07T11:19:21.106Z,31.10
2022-11-07T11:22:24.176Z,32.67
2022-11-07T11:25:26.217Z,34.87
2022-11-07T11:28:39.888Z,31.57
2022-11-07T11:31:43.438Z,34.93
2022-11-07T11:35:00.926Z,30.60
2022-11-07T11:38:21.433Z,32.80
2022-11-07T11:41:35.366Z,31.93
2022-11-07T11:44:41.199Z,31.07
2022-11-07T11:47:46.639Z,31.13
2022-11-07T11:50:50.168Z,29.33
2022-11-07T11:53:52.153Z,31.73
2022-11-07T11:56:59.661Z,29.20
2022-11-07T12:00:04.032Z,28.50
2022-11-07T12:03:09.606Z,28.53
2022-11-07T12:06:20.176Z,30.80
2022-11-07T12:09:42.076Z,26.23
2022-11-07T12:13:00.992Z,24.67
2022-11-07T12:16:08.938Z,23.70
2022-11-07T12:19:29.207Z,25.17
2022-11-07T12:22:51.682Z,29.20
2022-11-07T12:26:10.269Z,27.90
2022-11-07T12:29:41.257Z,24.17
2022-11-07T12:32:48.876Z,26.17
2022-11-07T12:35:50.422Z,24.63
2022-11-07T12:39:04.088Z,30.03
2022-11-07T12:42:28.732Z,27.33
2022-11-07T12:45:56.627Z,26.33
2022-11-07T12:48:58.219Z,22.70
2022-11-07T12:52:09.300Z,24.07
2022-11-07T12:55:17.034Z,29.00
2022-11-07T12:58:21.710Z,26.50
2022-11-07T13:01:33.829Z,27.37
2022-11-07T13:04:45.529Z,22.27
2022-11-07T13:07:58.942Z,28.83
2022-11-07T13:11:20.791Z,30.80
2022-11-07T13:14:33.109Z,28.23
2022-11-07T13:17:42.268Z,27.53
2022-11-07T13:20:43.872Z,28.27
2022-11-07T13:23:46.483Z,28.20
2022-11-07T13:26:48.437Z,26.43
2022-11-07T13:29:50.368Z,26.17
2022-11-07T13:32:52.005Z,28.10
2022-11-07T13:35:54.829Z,31.20
2022-11-07T13:38:58.685Z,30.97
2022-11-07T13:42:00.710Z,27.27
2022-11-07T13:45:19.472Z,31.00
2022-11-07T13:48:22.766Z,28.53
2022-11-07T13:51:39.628Z,26.40
2022-11-07T13:54:47.138Z,27.77
2022-11-07T13:57:53.845Z,25.17
2022-11-07T14:00:55.514Z,22.23
2022-11-07T14:03:57.328Z,23.10
2022-11-07T14:07:00.779Z,18.37
2022-11-07T14:10:04.138Z,16.80
2022-11-07T14:13:10.869Z,17.77
2022-11-07T14:16:21.643Z,17.83
2022-11-07T14:19:26.737Z,17.53
2022-11-07T14:22:28.425Z,17.00
2022-11-07T14:25:31.261Z,17.43
2022-11-07T14:28:37.253Z,20.80
2022-11-07T14:31:38.934Z,21.27
2022-11-07T14:34:43.844Z,20.87
2022-11-07T14:37:45.537Z,22.73
2022-11-07T14:40:47.585Z,20.00
2022-11-07T14:43:49.741Z,21.53
2022-11-07T14:46:52.854Z,20.60
2022-11-07T14:49:54.666Z,18.30
2022-11-07T14:53:00.634Z,15.13
2022-11-07T14:56:03.853Z,21.27
2022-11-07T14:59:10.096Z,20.93
2022-11-07T15:02:22.859Z,28.57
2022-11-07T15:05:24.569Z,27.87
2022-11-07T15:08:30.616Z,22.10
2022-11-07T15:11:36.423Z,22.47
2022-11-07T15:14:38.394Z,21.63
2022-11-07T15:17:59.859Z,23.97
2022-11-07T15:21:02.204Z,26.03
2022-11-07T15:24:22.486Z,27.00
2022-11-07T15:27:31.737Z,26.03
2022-11-07T15:30:33.882Z,24.57
2022-11-07T15:33:35.708Z,24.63
2022-11-07T15:36:41.066Z,32.47
2022-11-07T15:39:43.001Z,35.37
2022-11-07T15:42:44.546Z,34.43
2022-11-07T15:45:47.496Z,32.83
2022-11-07T15:48:49.330Z,40.40
2022-11-07T15:51:50.929Z,32.47
2022-11-07T15:54:52.516Z,39.87
2022-11-07T15:57:54.346Z,37.37
2022-11-07T16:00:56.888Z,46.23
2022-11-07T16:03:58.557Z,39.27
2022-11-07T16:07:00.253Z,46.53
2022-11-07T16:10:02.547Z,37.63
2022-11-07T16:13:05.271Z,41.57
2022-11-07T16:16:07.557Z,53.57
2022-11-07T16:19:12.565Z,50.37
2022-11-07T16:22:15.081Z,52.97
2022-11-07T16:25:21.872Z,45.47
2022-11-07T16:28:24.136Z,45.13
2022-11-07T16:31:25.914Z,42.47
2022-11-07T16:34:27.554Z,38.23
2022-11-07T16:37:29.117Z,39.87
2022-11-07T16:40:30.705Z,36.90
2022-11-07T16:43:35.079Z,56.20
2022-11-07T16:46:36.904Z,53.37
2022-11-07T16:49:39.300Z,60.53
2022-11-07T16:52:40.840Z,87.83
2022-11-07T16:55:49.502Z,54.77
2022-11-07T16:58:54.892Z,49.93
2022-11-07T17:01:57.574Z,43.73
2022-11-07T17:04:59.329Z,48.53
2022-11-07T17:08:02.083Z,50.23
2022-11-07T17:11:04.252Z,44.00
2022-11-07T17:14:05.908Z,39.97
2022-11-07T17:17:07.784Z,40.53
2022-11-07T17:20:34.232Z,38.93
2022-11-07T17:23:41.301Z,42.13
2022-11-07T17:26:42.988Z,43.73
2022-11-07T17:29:44.656Z,45.43
2022-11-07T17:32:46.714Z,40.73
2022-11-07T17:35:49.034Z,49.27
2022-11-07T17:38:51.370Z,43.07
2022-11-07T17:41:53.000Z,56.97
2022-11-07T17:44:54.592Z,61.57
2022-11-07T17:47:56.285Z,65.53
2022-11-07T17:50:58.022Z,66.87
2022-11-07T17:53:59.713Z,58.77
2022-11-07T17:57:03.590Z,60.63
2022-11-07T18:00:13.847Z,57.57
2022-11-07T18:03:15.443Z,52.97
2022-11-07T18:06:17.348Z,45.80
2022-11-07T18:09:18.954Z,45.53
2022-11-07T18:12:20.550Z,46.03
2022-11-07T18:15:22.284Z,45.47
2022-11-07T18:18:23.898Z,44.87
2022-11-07T18:21:25.832Z,40.63
2022-11-07T18:24:27.469Z,41.40
2022-11-07T18:27:29.056Z,43.63
2022-11-07T18:30:30.769Z,43.40
2022-11-07T18:33:32.447Z,45.60
2022-11-07T18:36:36.942Z,48.77
2022-11-07T18:39:38.998Z,56.63
2022-11-07T18:42:44.561Z,68.70
2022-11-07T18:45:46.105Z,75.00
2022-11-07T18:48:47.725Z,51.80
2022-11-07T18:51:49.300Z,43.40
2022-11-07T18:54:51.517Z,42.70
2022-11-07T18:57:53.317Z,37.57
2022-11-07T19:00:55.256Z,42.43
2022-11-07T19:03:58.096Z,33.67
2022-11-07T19:07:00.935Z,42.83
2022-11-07T19:10:02.606Z,44.23
2022-11-07T19:13:08.135Z,38.80
2022-11-07T19:16:10.874Z,40.40
2022-11-07T19:19:12.506Z,37.00
2022-11-07T19:22:14.888Z,34.33
2022-11-07T19:25:19.047Z,38.40
2022-11-07T19:28:20.656Z,40.57
2022-11-07T19:31:22.308Z,41.63
2022-11-07T19:34:25.727Z,39.43
2022-11-07T19:37:27.450Z,46.97
2022-11-07T19:40:29.730Z,41.50
2022-11-07T19:43:32.020Z,46.07
2022-11-07T19:46:33.690Z,47.80
2022-11-07T19:49:35.321Z,52.07
2022-11-07T19:52:37.029Z,43.37
2022-11-07T19:55:38.905Z,43.83
2022-11-07T19:58:41.229Z,48.67
2022-11-07T20:01:42.939Z,45.97
2022-11-07T20:04:44.704Z,47.80
2022-11-07T20:07:59.508Z,45.37
2022-11-07T20:11:05.654Z,39.23
2022-11-07T20:14:07.238Z,38.07
2022-11-07T20:17:08.897Z,41.83
2022-11-07T20:20:13.652Z,43.33
2022-11-07T20:23:16.062Z,43.03
2022-11-07T20:26:19.265Z,55.73
2022-11-07T20:29:24.364Z,41.87
2022-11-07T20:32:26.568Z,40.23
2022-11-07T20:35:28.430Z,38.23
2022-11-07T20:38:30.295Z,39.63
2022-11-07T20:41:33.008Z,37.37
2022-11-07T20:44:35.058Z,41.13
2022-11-07T20:47:36.703Z,37.80
2022-11-07T20:50:38.360Z,37.10
2022-11-07T20:53:43.230Z,49.17
2022-11-07T20:56:47.071Z,49.30
2022-11-07T20:59:48.677Z,47.70
2022-11-07T21:02:50.316Z,50.33
2022-11-07T21:05:52.199Z,43.27
2022-11-07T21:08:53.772Z,39.77
2022-11-07T21:11:55.426Z,41.17
2022-11-07T21:14:57.037Z,42.87
2022-11-07T21:17:58.783Z,44.63
2022-11-07T21:21:06.199Z,43.10
2022-11-07T21:24:08.127Z,47.90
2022-11-07T21:27:09.698Z,47.27
2022-11-07T21:30:12.983Z,49.90
2022-11-07T21:33:15.602Z,52.00
2022-11-07T21:36:19.257Z,49.80
2022-11-07T21:39:20.836Z,44.67
2022-11-07T21:42:22.686Z,45.23
2022-11-07T21:45:24.340Z,45.47
2022-11-07T21:48:26.047Z,43.60
2022-11-07T21:51:31.544Z,40.17
2022-11-07T21:54:33.626Z,47.23
2022-11-07T21:57:35.292Z,44.90
2022-11-07T22:00:37.268Z,39.73
2022-11-07T22:04:04.280Z,42.97
2022-11-07T22:07:01.063Z,38.40
2022-11-07T22:10:03.747Z,40.37
2022-11-07T22:13:07.230Z,39.20
2022-11-07T22:16:11.400Z,39.47
2022-11-07T22:19:13.308Z,37.80
2022-11-07T22:22:14.893Z,44.13
2022-11-07T22:25:16.485Z,39.00
2022-11-07T22:28:18.051Z,38.10
2022-11-07T22:31:24.052Z,39.40
2022-11-07T22:34:25.809Z,36.27
2022-11-07T22:37:27.494Z,36.30
2022-11-07T22:40:29.183Z,35.90
2022-11-07T22:43:30.984Z,35.83
2022-11-07T22:46:32.578Z,38.97
2022-11-07T22:49:34.109Z,31.63
2022-11-07T22:52:35.689Z,36.40
2022-11-07T22:55:37.660Z,29.63
2022-11-07T22:58:39.600Z,36.07
2022-11-07T23:01:42.236Z,35.20
2022-11-07T23:04:43.918Z,39.17
2022-11-07T23:07:48.405Z,41.30
2022-11-07T23:11:38.495Z,35.57
2022-11-07T23:14:21.957Z,34.23
2022-11-07T23:17:23.928Z,40.67
2022-11-07T23:20:44.205Z,35.50
2022-11-07T23:23:45.896Z,34.30
2022-11-07T23:26:47.499Z,34.60
2022-11-07T23:29:49.118Z,31.40
2022-11-07T23:32:50.731Z,35.83
2022-11-07T23:35:52.364Z,34.37
2022-11-07T23:38:53.996Z,33.50
2022-11-07T23:41:55.567Z,33.30
2022-11-07T23:45:15.425Z,35.30
2022-11-07T23:48:35.791Z,33.90
2022-11-07T23:51:37.552Z,30.90
2022-11-07T23:54:57.736Z,30.93
2022-11-07T23:58:18.191Z,34.57
